createdAt,value
2019-01-19T00:02:08.068Z,22.4
2019-01-19T00:05:13.977Z,22.4
2019-01-19T00:08:19.990Z,22.4
2019-01-19T00:11:25.925Z,22.4
2019-01-19T00:14:31.945Z,22.4
2019-01-19T00:17:37.901Z,22.4
2019-01-19T00:20:43.908Z,22.4
2019-01-19T00:23:49.832Z,22.3
2019-01-19T00:26:55.962Z,22.3
2019-01-19T00:30:01.892Z,22.3
2019-01-19T00:33:07.810Z,22.3
2019-01-19T00:36:13.823Z,22.3
2019-01-19T00:39:19.790Z,22.3
2019-01-19T00:42:25.803Z,22.2
2019-01-19T00:45:31.709Z,22.2
2019-01-19T00:48:37.657Z,22.2
2019-01-19T00:51:43.650Z,22.2
2019-01-19T00:54:49.683Z,22.2
2019-01-19T00:57:55.731Z,22.2
2019-01-19T01:01:01.729Z,22.1
2019-01-19T01:04:07.712Z,22.1
2019-01-19T01:07:13.654Z,22.1
2019-01-19T01:10:19.740Z,22.1
2019-01-19T01:13:25.595Z,22.1
2019-01-19T01:16:31.640Z,22.1
2019-01-19T01:19:37.687Z,22.1
2019-01-19T01:22:43.637Z,22.1
2019-01-19T01:25:49.680Z,22.1
2019-01-19T01:28:55.617Z,22
2019-01-19T01:32:01.547Z,22
2019-01-19T01:35:07.468Z,22
2019-01-19T01:38:13.443Z,22
2019-01-19T01:41:19.468Z,22
2019-01-19T01:44:25.480Z,22
2019-01-19T01:47:31.519Z,22
2019-01-19T01:50:37.603Z,22
2019-01-19T01:53:43.480Z,22
2019-01-19T01:56:49.443Z,22
2019-01-19T01:59:55.417Z,21.9
2019-01-19T02:03:01.534Z,21.9
2019-01-19T02:06:07.577Z,21.9
2019-01-19T02:09:13.574Z,21.9
2019-01-19T02:12:19.453Z,21.9
2019-01-19T02:15:25.449Z,21.9
2019-01-19T02:18:31.447Z,21.9
2019-01-19T02:21:37.328Z,21.9
2019-01-19T02:24:43.360Z,21.9
2019-01-19T02:27:49.240Z,21.8
2019-01-19T02:30:55.174Z,21.9
2019-01-19T02:34:01.136Z,21.8
2019-01-19T02:37:07.029Z,21.8
2019-01-19T02:40:12.943Z,21.8
2019-01-19T02:43:18.839Z,21.8
2019-01-19T02:46:24.848Z,21.8
2019-01-19T02:49:30.876Z,21.8
2019-01-19T02:52:36.887Z,21.8
2019-01-19T02:55:42.786Z,21.8
2019-01-19T02:58:48.748Z,21.7
2019-01-19T03:01:54.714Z,21.8
2019-01-19T03:05:00.639Z,21.8
2019-01-19T03:08:06.512Z,21.7
2019-01-19T03:11:12.471Z,21.7
2019-01-19T03:14:18.467Z,21.7
2019-01-19T03:17:24.448Z,21.7
2019-01-19T03:20:30.410Z,21.7
2019-01-19T03:23:36.385Z,21.7
2019-01-19T03:26:42.295Z,21.7
2019-01-19T03:29:48.303Z,21.7
2019-01-19T03:32:54.291Z,21.7
2019-01-19T03:36:04.431Z,21.7
2019-01-19T03:39:10.616Z,21.7
2019-01-19T03:42:16.644Z,21.7
2019-01-19T03:45:22.599Z,21.7
2019-01-19T03:48:28.580Z,21.6
2019-01-19T03:51:34.508Z,21.6
2019-01-19T03:54:40.480Z,21.7
2019-01-19T03:57:46.445Z,21.6
2019-01-19T04:00:52.549Z,21.6
2019-01-19T04:03:58.548Z,21.6
2019-01-19T04:07:04.444Z,21.6
2019-01-19T04:10:10.501Z,21.6
2019-01-19T04:13:16.399Z,21.6
2019-01-19T04:16:22.351Z,21.6
2019-01-19T04:19:28.328Z,21.6
2019-01-19T04:22:34.249Z,21.6
2019-01-19T04:25:40.179Z,21.6
2019-01-19T04:28:46.239Z,21.5
2019-01-19T04:31:52.197Z,21.5
2019-01-19T04:34:58.095Z,21.5
2019-01-19T04:38:04.158Z,21.5
2019-01-19T04:41:10.170Z,21.5
2019-01-19T04:44:16.083Z,21.5
2019-01-19T04:47:22.019Z,21.5
2019-01-19T04:50:27.944Z,21.5
2019-01-19T04:53:33.966Z,21.5
2019-01-19T04:56:39.903Z,21.5
2019-01-19T04:59:45.934Z,21.5
2019-01-19T05:02:51.937Z,21.5
2019-01-19T05:05:57.984Z,21.5
2019-01-19T05:09:13.494Z,21.5
2019-01-19T05:12:19.411Z,21.5
2019-01-19T05:15:25.289Z,21.5
2019-01-19T05:18:31.238Z,21.4
2019-01-19T05:21:37.153Z,21.5
2019-01-19T05:24:43.165Z,21.4
2019-01-19T05:27:49.016Z,21.4
2019-01-19T05:30:54.964Z,21.5
2019-01-19T05:34:02.350Z,21.5
2019-01-19T05:37:08.230Z,21.4
2019-01-19T05:40:14.225Z,21.4
2019-01-19T05:43:20.180Z,21.4
2019-01-19T05:46:26.092Z,21.4
2019-01-19T05:49:32.037Z,21.4
2019-01-19T05:52:38.170Z,21.4
2019-01-19T05:55:44.182Z,21.4
2019-01-19T05:58:50.142Z,21.4
2019-01-19T06:01:56.187Z,21.4
2019-01-19T06:05:02.067Z,21.4
2019-01-19T06:08:08.005Z,21.4
2019-01-19T06:11:13.980Z,21.4
2019-01-19T06:14:19.925Z,21.3
2019-01-19T06:17:25.838Z,21.3
2019-01-19T06:20:31.838Z,21.3
2019-01-19T06:23:37.808Z,21.3
2019-01-19T06:26:43.797Z,21.3
2019-01-19T06:29:49.645Z,21.3
2019-01-19T06:32:55.651Z,21.3
2019-01-19T06:36:01.645Z,21.3
2019-01-19T06:39:07.580Z,21.3
2019-01-19T06:42:13.613Z,21.3
2019-01-19T06:45:19.586Z,21.3
2019-01-19T06:48:25.600Z,21.3
2019-01-19T06:51:31.557Z,21.3
2019-01-19T06:54:37.488Z,21.3
2019-01-19T06:57:43.474Z,21.3
2019-01-19T07:00:49.458Z,21.3
2019-01-19T07:03:55.403Z,21.3
2019-01-19T07:07:02.701Z,21.3
2019-01-19T07:10:11.476Z,21.3
2019-01-19T07:13:17.400Z,21.3
2019-01-19T07:16:23.483Z,21.3
2019-01-19T07:19:29.443Z,21.3
2019-01-19T07:22:35.458Z,21.3
2019-01-19T07:25:41.368Z,21.3
2019-01-19T07:28:50.398Z,21.3
2019-01-19T07:31:56.309Z,21.3
2019-01-19T07:35:02.246Z,21.3
2019-01-19T07:38:08.212Z,21.3
2019-01-19T07:41:14.156Z,21.3
2019-01-19T07:44:23.163Z,21.3
2019-01-19T07:47:29.298Z,21.3
2019-01-19T07:50:36.543Z,21.3
2019-01-19T07:53:45.152Z,21.3
2019-01-19T07:56:53.976Z,21.3
2019-01-19T07:59:59.992Z,21.3
2019-01-19T08:03:05.938Z,21.3
2019-01-19T08:06:11.909Z,21.3
2019-01-19T08:09:17.870Z,21.3
2019-01-19T08:12:23.797Z,21.3
2019-01-19T08:15:29.799Z,21.3
2019-01-19T08:18:35.847Z,21.3
2019-01-19T08:21:41.754Z,21.3
2019-01-19T08:24:47.705Z,21.4
2019-01-19T08:27:53.605Z,21.3
2019-01-19T08:30:59.567Z,21.3
2019-01-19T08:34:05.618Z,21.4
2019-01-19T08:37:11.571Z,21.4
2019-01-19T08:40:20.702Z,21.4
2019-01-19T08:43:26.652Z,21.4
2019-01-19T08:46:32.708Z,21.4
2019-01-19T08:49:38.782Z,21.4
2019-01-19T08:52:44.774Z,21.4
2019-01-19T08:55:50.733Z,21.4
2019-01-19T08:58:56.650Z,21.4
2019-01-19T09:02:02.730Z,21.4
2019-01-19T09:05:10.242Z,21.4
2019-01-19T09:08:16.122Z,21.4
2019-01-19T09:11:22.084Z,21.4
2019-01-19T09:14:28.130Z,21.5
2019-01-19T09:17:34.041Z,21.5
2019-01-19T09:20:39.996Z,21.5
2019-01-19T09:23:45.843Z,21.5
2019-01-19T09:26:51.857Z,21.5
2019-01-19T09:29:57.787Z,21.5
2019-01-19T09:33:06.274Z,21.5
2019-01-19T09:36:12.250Z,21.5
2019-01-19T09:39:18.254Z,21.5
2019-01-19T09:42:24.120Z,21.5
2019-01-19T09:45:30.016Z,21.5
2019-01-19T09:48:37.648Z,21.6
2019-01-19T09:51:43.587Z,21.6
2019-01-19T09:54:49.586Z,21.6
2019-01-19T09:57:55.570Z,21.6
2019-01-19T10:01:01.621Z,21.6
2019-01-19T10:04:07.523Z,21.6
2019-01-19T10:07:13.432Z,21.6
2019-01-19T10:10:19.398Z,21.6
2019-01-19T10:13:25.247Z,21.6
2019-01-19T10:16:31.176Z,21.7
2019-01-19T10:19:37.159Z,21.7
2019-01-19T10:22:43.135Z,21.7
2019-01-19T10:25:48.990Z,21.7
2019-01-19T10:28:54.925Z,21.7
2019-01-19T10:32:00.913Z,21.7
2019-01-19T10:35:09.567Z,21.7
2019-01-19T10:38:15.552Z,21.7
2019-01-19T10:41:21.467Z,21.7
2019-01-19T10:44:27.472Z,21.7
2019-01-19T10:47:33.472Z,21.8
2019-01-19T10:50:39.322Z,21.8
2019-01-19T10:53:45.306Z,21.8
2019-01-19T10:56:51.366Z,21.8
2019-01-19T10:59:57.309Z,21.8
2019-01-19T11:03:03.292Z,21.8
2019-01-19T11:06:09.244Z,21.8
2019-01-19T11:09:15.151Z,21.8
2019-01-19T11:12:21.098Z,21.8
2019-01-19T11:15:27.275Z,21.8
2019-01-19T11:18:33.364Z,21.8
2019-01-19T11:21:39.198Z,21.9
2019-01-19T11:24:45.356Z,21.9
2019-01-19T11:27:51.312Z,21.9
2019-01-19T11:30:57.276Z,21.9
2019-01-19T11:34:03.267Z,21.9
2019-01-19T11:37:09.382Z,21.9
2019-01-19T11:40:15.302Z,21.9
2019-01-19T11:43:21.393Z,21.9
2019-01-19T11:46:27.310Z,21.9
2019-01-19T11:49:33.325Z,21.9
2019-01-19T11:52:39.340Z,21.9
2019-01-19T11:55:46.059Z,21.9
2019-01-19T11:58:52.088Z,21.9
2019-01-19T12:01:58.073Z,21.9
2019-01-19T12:05:04.041Z,21.9
2019-01-19T12:08:10.010Z,21.9
2019-01-19T12:11:23.769Z,21.9
2019-01-19T12:14:29.704Z,21.9
2019-01-19T12:17:35.889Z,22
2019-01-19T12:20:41.786Z,22
2019-01-19T12:23:47.708Z,22
2019-01-19T12:26:53.593Z,22
2019-01-19T12:29:59.540Z,22
2019-01-19T12:33:05.664Z,22
2019-01-19T12:36:14.593Z,22
2019-01-19T12:39:20.661Z,22
2019-01-19T12:42:26.639Z,22
2019-01-19T12:45:32.619Z,22
2019-01-19T12:48:38.562Z,22
2019-01-19T12:51:44.599Z,22
2019-01-19T12:54:50.506Z,22
2019-01-19T12:57:56.441Z,22
2019-01-19T13:01:02.330Z,22
2019-01-19T13:04:08.359Z,22
2019-01-19T13:07:14.239Z,22
2019-01-19T13:10:20.588Z,22
2019-01-19T13:13:26.607Z,22
2019-01-19T13:16:32.710Z,22
2019-01-19T13:19:38.660Z,22
2019-01-19T13:22:45.999Z,22
2019-01-19T13:25:52.228Z,22
2019-01-19T13:28:58.181Z,22
2019-01-19T13:32:05.178Z,22
2019-01-19T13:35:11.199Z,22
2019-01-19T13:38:17.231Z,22
2019-01-19T13:41:23.279Z,22
2019-01-19T13:44:29.136Z,22
2019-01-19T13:47:35.136Z,22
2019-01-19T13:50:41.125Z,22
2019-01-19T13:53:47.083Z,22
2019-01-19T13:56:52.977Z,22
2019-01-19T13:59:58.992Z,22
2019-01-19T14:03:05.082Z,22
2019-01-19T14:06:10.954Z,22
2019-01-19T14:09:16.887Z,22
2019-01-19T14:12:22.825Z,22
2019-01-19T14:15:29.281Z,22
2019-01-19T14:18:35.362Z,22
2019-01-19T14:21:41.355Z,22
2019-01-19T14:24:47.366Z,22
2019-01-19T14:27:53.341Z,22
2019-01-19T14:30:59.247Z,22
2019-01-19T14:34:05.173Z,22
2019-01-19T14:37:11.148Z,22
2019-01-19T14:40:17.088Z,22
2019-01-19T14:43:22.980Z,22
2019-01-19T14:46:31.885Z,22
2019-01-19T14:49:37.825Z,22
2019-01-19T14:52:43.726Z,22
2019-01-19T14:55:49.655Z,22
2019-01-19T14:58:58.254Z,22
2019-01-19T15:02:04.223Z,22
2019-01-19T15:05:10.162Z,22
2019-01-19T15:08:16.144Z,22
2019-01-19T15:11:22.089Z,22
2019-01-19T15:14:28.150Z,22
2019-01-19T15:17:34.164Z,22
2019-01-19T15:20:40.211Z,22
2019-01-19T15:23:46.251Z,22
2019-01-19T15:26:52.248Z,22
2019-01-19T15:29:58.197Z,21.9
2019-01-19T15:33:04.238Z,22
2019-01-19T15:36:10.282Z,21.9
2019-01-19T15:39:16.263Z,21.9
2019-01-19T15:42:22.221Z,21.9
2019-01-19T15:45:28.236Z,21.9
2019-01-19T15:48:34.239Z,21.9
2019-01-19T15:51:40.216Z,21.9
2019-01-19T15:54:46.132Z,21.9
2019-01-19T15:57:51.977Z,21.9
2019-01-19T16:00:57.937Z,21.9
2019-01-19T16:04:03.936Z,21.9
2019-01-19T16:07:09.883Z,21.9
2019-01-19T16:10:15.880Z,21.9
2019-01-19T16:13:24.919Z,21.8
2019-01-19T16:16:32.940Z,21.9
2019-01-19T16:19:38.868Z,21.8
2019-01-19T16:22:44.801Z,21.9
2019-01-19T16:25:53.538Z,21.8
2019-01-19T16:28:59.435Z,21.8
2019-01-19T16:32:08.013Z,21.8
2019-01-19T16:35:14.215Z,21.8
2019-01-19T16:38:20.154Z,21.8
2019-01-19T16:41:26.130Z,21.8
2019-01-19T16:44:32.104Z,21.8
2019-01-19T16:47:38.181Z,21.8
2019-01-19T16:50:44.180Z,21.8
2019-01-19T16:53:50.791Z,21.8
2019-01-19T16:56:56.753Z,21.8
2019-01-19T17:00:02.692Z,21.8
2019-01-19T17:03:08.565Z,21.8
2019-01-19T17:06:16.330Z,21.8
2019-01-19T17:09:22.331Z,21.8
2019-01-19T17:12:35.221Z,21.8
2019-01-19T17:15:41.151Z,21.8
2019-01-19T17:18:47.250Z,21.8
2019-01-19T17:21:53.134Z,21.7
2019-01-19T17:24:59.201Z,21.8
2019-01-19T17:28:05.303Z,21.7
2019-01-19T17:31:11.229Z,21.7
2019-01-19T17:34:20.358Z,21.7
2019-01-19T17:37:26.248Z,21.7
2019-01-19T17:40:32.175Z,21.7
2019-01-19T17:43:38.122Z,21.7
2019-01-19T17:46:44.064Z,21.7
2019-01-19T17:49:50.013Z,21.7
2019-01-19T17:52:55.843Z,21.7
2019-01-19T17:56:01.822Z,21.7
2019-01-19T17:59:07.726Z,21.7
2019-01-19T18:02:13.736Z,21.7
2019-01-19T18:05:19.697Z,21.7
2019-01-19T18:08:25.667Z,21.7
2019-01-19T18:11:31.611Z,21.7
2019-01-19T18:14:39.174Z,21.7
2019-01-19T18:17:45.182Z,21.7
2019-01-19T18:20:52.407Z,21.6
2019-01-19T18:23:58.331Z,21.6
2019-01-19T18:27:04.271Z,21.6
2019-01-19T18:30:10.274Z,21.6
2019-01-19T18:33:16.149Z,21.6
2019-01-19T18:36:22.148Z,21.6
2019-01-19T18:39:28.163Z,21.6
2019-01-19T18:42:34.188Z,21.6
2019-01-19T18:45:40.161Z,21.6
2019-01-19T18:48:46.351Z,21.6
2019-01-19T18:51:52.373Z,21.6
2019-01-19T18:54:58.443Z,21.6
2019-01-19T18:58:04.382Z,21.6
2019-01-19T19:01:10.345Z,21.6
2019-01-19T19:04:16.296Z,21.6
2019-01-19T19:07:22.621Z,21.6
2019-01-19T19:10:28.481Z,21.6
2019-01-19T19:13:34.405Z,21.6
2019-01-19T19:16:40.435Z,21.6
2019-01-19T19:19:46.450Z,21.6
2019-01-19T19:22:52.320Z,21.5
2019-01-19T19:25:58.304Z,21.6
2019-01-19T19:29:04.315Z,21.5
2019-01-19T19:32:10.245Z,21.5
2019-01-19T19:35:16.252Z,21.5
2019-01-19T19:38:22.116Z,21.5
2019-01-19T19:41:29.631Z,21.5
2019-01-19T19:44:35.675Z,21.5
2019-01-19T19:47:41.592Z,21.5
2019-01-19T19:50:47.491Z,21.5
2019-01-19T19:53:53.417Z,21.5
2019-01-19T19:56:59.365Z,21.5
2019-01-19T20:00:05.310Z,21.5
2019-01-19T20:03:11.349Z,21.5
2019-01-19T20:06:17.296Z,21.5
2019-01-19T20:09:23.231Z,21.4
2019-01-19T20:12:29.154Z,21.4
2019-01-19T20:15:35.257Z,21.4
2019-01-19T20:18:41.135Z,21.4
2019-01-19T20:21:47.156Z,21.4
2019-01-19T20:24:53.107Z,21.4
2019-01-19T20:27:59.182Z,21.4
2019-01-19T20:31:05.332Z,21.4
2019-01-19T20:34:11.338Z,21.4
2019-01-19T20:37:17.265Z,21.4
2019-01-19T20:40:24.403Z,21.4
2019-01-19T20:43:30.566Z,21.4
2019-01-19T20:46:36.571Z,21.4
2019-01-19T20:49:42.568Z,21.4
2019-01-19T20:52:48.502Z,21.4
2019-01-19T20:55:54.445Z,21.4
2019-01-19T20:59:00.376Z,21.3
2019-01-19T21:02:06.406Z,21.4
2019-01-19T21:05:12.337Z,21.4
2019-01-19T21:08:18.371Z,21.3
2019-01-19T21:11:24.448Z,21.3
2019-01-19T21:14:30.399Z,21.3
2019-01-19T21:17:36.358Z,21.3
2019-01-19T21:20:42.335Z,21.3
2019-01-19T21:23:51.076Z,21.3
2019-01-19T21:26:57.014Z,21.3
2019-01-19T21:30:02.916Z,21.3
2019-01-19T21:33:09.045Z,21.3
2019-01-19T21:36:17.435Z,21.3
2019-01-19T21:39:23.366Z,21.3
2019-01-19T21:42:29.314Z,21.3
2019-01-19T21:45:35.431Z,21.3
2019-01-19T21:48:41.447Z,21.3
2019-01-19T21:51:47.402Z,21.3
2019-01-19T21:54:53.408Z,21.3
2019-01-19T21:57:59.480Z,21.3
2019-01-19T22:01:05.467Z,21.3
2019-01-19T22:04:11.384Z,21.3
2019-01-19T22:07:17.391Z,21.3
2019-01-19T22:10:23.255Z,21.3
2019-01-19T22:13:29.263Z,21.3
2019-01-19T22:16:37.734Z,21.3
2019-01-19T22:19:43.747Z,21.3
2019-01-19T22:22:49.694Z,21.3
2019-01-19T22:25:55.652Z,21.2
2019-01-19T22:29:01.686Z,21.3
2019-01-19T22:32:07.644Z,21.2
2019-01-19T22:35:16.351Z,21.3
2019-01-19T22:38:22.283Z,21.2
2019-01-19T22:41:28.294Z,21.2
2019-01-19T22:44:34.223Z,21.2
2019-01-19T22:47:40.231Z,21.2
2019-01-19T22:50:46.183Z,21.2
2019-01-19T22:53:52.104Z,21.2
2019-01-19T22:56:58.080Z,21.2
2019-01-19T23:00:04.022Z,21.2
2019-01-19T23:03:09.992Z,21.2
2019-01-19T23:06:16.015Z,21.2
2019-01-19T23:09:21.982Z,21.2
2019-01-19T23:12:28.138Z,21.2
2019-01-19T23:15:34.033Z,21.2
2019-01-19T23:18:40.086Z,21.2
2019-01-19T23:21:45.974Z,21.2
2019-01-19T23:24:53.822Z,21.2
2019-01-19T23:27:59.796Z,21.2
2019-01-19T23:31:05.668Z,21.2
2019-01-19T23:34:11.608Z,21.1
2019-01-19T23:37:17.819Z,21.1
2019-01-19T23:40:23.760Z,21.2
2019-01-19T23:43:29.680Z,21.1
2019-01-19T23:46:35.634Z,21.2
2019-01-19T23:49:41.583Z,21.2
2019-01-19T23:52:47.571Z,21.1
2019-01-19T23:55:53.634Z,21.1
2019-01-19T23:59:02.773Z,21.1
